sensor_id;sensor_type;location;lat;lon;timestamp;pressure;altitude;pressure_sealevel;temperature;humidity
42111;BME280;27766;52.174;5.456;2023-04-15T00:01:12;100807.41;;;8.91;100.00
42111;BME280;27766;52.174;5.456;2023-04-15T00:03:44;100813.44;;;8.91;100.00
42111;BME280;27766;52.174;5.456;2023-04-15T00:06:14;100807.31;;;8.87;100.00
42111;BME280;27766;52.174;5.456;2023-04-15T00:08:42;100812.38;;;8.83;100.00
42111;BME280;27766;52.174;5.456;2023-04-15T00:11:09;100819.25;;;8.82;100.00
42111;BME280;27766;52.174;5.456;2023-04-15T00:13:37;100816.53;;;8.76;100.00
42111;BME280;27766;52.174;5.456;2023-04-15T00:16:05;100821.75;;;8.79;100.00
42111;BME280;27766;52.174;5.456;2023-04-15T00:18:33;100817.22;;;8.69;100.00
42111;BME280;27766;52.174;5.456;2023-04-15T00:21:01;100821.47;;;8.68;100.00
42111;BME280;27766;52.174;5.456;2023-04-15T00:23:28;100824.91;;;8.67;100.00
42111;BME280;27766;52.174;5.456;2023-04-15T00:25:56;100817.81;;;8.60;100.00
42111;BME280;27766;52.174;5.456;2023-04-15T00:28:23;100821.22;;;8.58;100.00
42111;BME280;27766;52.174;5.456;2023-04-15T00:30:51;100816.75;;;8.52;100.00
42111;BME280;27766;52.174;5.456;2023-04-15T00:33:18;100813.31;;;8.51;100.00
42111;BME280;27766;52.174;5.456;2023-04-15T00:35:45;100810.66;;;8.48;100.00
42111;BME280;27766;52.174;5.456;2023-04-15T00:38:12;100808.84;;;8.46;100.00
42111;BME280;27766;52.174;5.456;2023-04-15T00:40:40;100806.06;;;8.38;100.00
42111;BME280;27766;52.174;5.456;2023-04-15T00:43:07;100811.22;;;8.38;100.00
42111;BME280;27766;52.174;5.456;2023-04-15T00:45:34;100812.78;;;8.33;100.00
42111;BME280;27766;52.174;5.456;2023-04-15T00:48:01;100808.44;;;8.32;100.00
42111;BME280;27766;52.174;5.456;2023-04-15T00:50:29;100801.25;;;8.20;100.00
42111;BME280;27766;52.174;5.456;2023-04-15T00:52:56;100815.16;;;8.25;100.00
42111;BME280;27766;52.174;5.456;2023-04-15T00:55:23;100813.38;;;8.22;100.00
42111;BME280;27766;52.174;5.456;2023-04-15T00:57:51;100818.41;;;8.18;100.00
42111;BME280;27766;52.174;5.456;2023-04-15T01:00:20;100821.78;;;8.15;100.00
42111;BME280;27766;52.174;5.456;2023-04-15T01:02:47;100822.38;;;8.06;100.00
42111;BME280;27766;52.174;5.456;2023-04-15T01:05:15;100822.31;;;8.03;100.00
42111;BME280;27766;52.174;5.456;2023-04-15T01:07:46;100817.91;;;8.01;100.00
42111;BME280;27766;52.174;5.456;2023-04-15T01:10:13;100818.00;;;8.02;100.00
42111;BME280;27766;52.174;5.456;2023-04-15T01:12:40;100821.41;;;8.01;100.00
42111;BME280;27766;52.174;5.456;2023-04-15T01:15:08;100818.78;;;8.00;100.00
42111;BME280;27766;52.174;5.456;2023-04-15T01:17:37;100818.78;;;8.00;100.00
42111;BME280;27766;52.174;5.456;2023-04-15T01:20:05;100819.47;;;7.94;100.00
42111;BME280;27766;52.174;5.456;2023-04-15T01:22:35;100815.00;;;7.88;100.00
42111;BME280;27766;52.174;5.456;2023-04-15T01:25:11;100827.25;;;7.96;100.00
42111;BME280;27766;52.174;5.456;2023-04-15T01:27:40;100822.09;;;7.96;100.00
42111;BME280;27766;52.174;5.456;2023-04-15T01:30:08;100822.06;;;7.94;100.00
42111;BME280;27766;52.174;5.456;2023-04-15T01:32:36;100819.31;;;7.88;100.00
42111;BME280;27766;52.174;5.456;2023-04-15T01:35:04;100823.56;;;7.87;100.00
42111;BME280;27766;52.174;5.456;2023-04-15T01:37:31;100826.94;;;7.85;100.00
42111;BME280;27766;52.174;5.456;2023-04-15T01:39:59;100825.03;;;7.79;100.00
42111;BME280;27766;52.174;5.456;2023-04-15T01:42:26;100820.63;;;7.73;100.00
42111;BME280;27766;52.174;5.456;2023-04-15T01:44:53;100819.72;;;7.73;100.00
42111;BME280;27766;52.174;5.456;2023-04-15T01:47:21;100818.75;;;7.69;100.00
42111;BME280;27766;52.174;5.456;2023-04-15T01:49:48;100829.94;;;7.70;100.00
42111;BME280;27766;52.174;5.456;2023-04-15T01:52:15;100829.94;;;7.70;100.00
42111;BME280;27766;52.174;5.456;2023-04-15T01:54:42;100825.56;;;7.67;100.00
42111;BME280;27766;52.174;5.456;2023-04-15T01:57:10;100826.44;;;7.68;100.00
42111;BME280;27766;52.174;5.456;2023-04-15T01:59:37;100821.16;;;7.63;100.00
42111;BME280;27766;52.174;5.456;2023-04-15T02:02:04;100818.41;;;7.57;100.00
42111;BME280;27766;52.174;5.456;2023-04-15T02:04:31;100829.50;;;7.54;100.00
42111;BME280;27766;52.174;5.456;2023-04-15T02:06:59;100826.81;;;7.51;100.00
42111;BME280;27766;52.174;5.456;2023-04-15T02:09:26;100836.97;;;7.47;100.00
42111;BME280;27766;52.174;5.456;2023-04-15T02:11:53;100830.84;;;7.43;100.00
42111;BME280;27766;52.174;5.456;2023-04-15T02:14:21;100836.00;;;7.43;100.00
42111;BME280;27766;52.174;5.456;2023-04-15T02:16:48;100832.34;;;7.36;100.00
42111;BME280;27766;52.174;5.456;2023-04-15T02:19:15;100837.56;;;7.38;100.00
42111;BME280;27766;52.174;5.456;2023-04-15T02:21:42;100832.25;;;7.32;100.00
42111;BME280;27766;52.174;5.456;2023-04-15T02:24:09;100829.66;;;7.32;100.00
42111;BME280;27766;52.174;5.456;2023-04-15T02:26:38;100832.13;;;7.28;100.00
42111;BME280;27766;52.174;5.456;2023-04-15T02:29:05;100842.31;;;7.25;100.00
42111;BME280;27766;52.174;5.456;2023-04-15T02:31:32;100843.03;;;7.20;100.00
42111;BME280;27766;52.174;5.456;2023-04-15T02:34:02;100846.31;;;7.16;100.00
42111;BME280;27766;52.174;5.456;2023-04-15T02:36:30;100845.34;;;7.12;100.00
42111;BME280;27766;52.174;5.456;2023-04-15T02:38:57;100846.97;;;7.10;100.00
42111;BME280;27766;52.174;5.456;2023-04-15T02:41:25;100849.56;;;7.10;100.00
42111;BME280;27766;52.174;5.456;2023-04-15T02:43:54;100848.50;;;7.03;100.00
42111;BME280;27766;52.174;5.456;2023-04-15T02:46:21;100856.09;;;7.00;100.00
42111;BME280;27766;52.174;5.456;2023-04-15T02:48:49;100859.50;;;6.99;100.00
42111;BME280;27766;52.174;5.456;2023-04-15T02:51:20;100870.47;;;6.93;100.00
42111;BME280;27766;52.174;5.456;2023-04-15T02:53:49;100858.22;;;6.86;100.00
42111;BME280;27766;52.174;5.456;2023-04-15T02:56:16;100870.38;;;6.90;100.00
42111;BME280;27766;52.174;5.456;2023-04-15T02:58:45;100861.56;;;6.84;100.00
42111;BME280;27766;52.174;5.456;2023-04-15T03:01:12;100857.22;;;6.82;100.00
42111;BME280;27766;52.174;5.456;2023-04-15T03:03:39;100845.09;;;6.78;100.00
42111;BME280;27766;52.174;5.456;2023-04-15T03:06:07;100876.38;;;6.91;100.00
42111;BME280;27766;52.174;5.456;2023-04-15T03:08:35;100878.25;;;6.95;100.00
42111;BME280;27766;52.174;5.456;2023-04-15T03:11:03;100876.44;;;6.92;100.00
42111;BME280;27766;52.174;5.456;2023-04-15T03:13:30;100878.03;;;6.89;100.00
42111;BME280;27766;52.174;5.456;2023-04-15T03:15:57;100877.28;;;6.91;100.00
42111;BME280;27766;52.174;5.456;2023-04-15T03:18:24;100881.53;;;6.91;100.00
42111;BME280;27766;52.174;5.456;2023-04-15T03:20:52;100878.94;;;6.91;100.00
42111;BME280;27766;52.174;5.456;2023-04-15T03:23:19;100882.34;;;6.90;100.00
42111;BME280;27766;52.174;5.456;2023-04-15T03:25:46;100887.44;;;6.88;100.00
42111;BME280;27766;52.174;5.456;2023-04-15T03:28:13;100883.06;;;6.86;100.00
42111;BME280;27766;52.174;5.456;2023-04-15T03:30:40;100875.13;;;6.78;100.00
42111;BME280;27766;52.174;5.456;2023-04-15T03:33:08;100879.47;;;6.80;100.00
42111;BME280;27766;52.174;5.456;2023-04-15T03:35:35;100888.19;;;6.84;100.00
42111;BME280;27766;52.174;5.456;2023-04-15T03:38:02;100881.16;;;6.80;100.00
42111;BME280;27766;52.174;5.456;2023-04-15T03:40:29;100890.69;;;6.82;100.00
42111;BME280;27766;52.174;5.456;2023-04-15T03:42:56;100896.72;;;6.83;100.00
42111;BME280;27766;52.174;5.456;2023-04-15T03:45:24;100894.84;;;6.79;100.00
42111;BME280;27766;52.174;5.456;2023-04-15T03:47:51;100892.06;;;6.73;100.00
42111;BME280;27766;52.174;5.456;2023-04-15T03:50:19;100903.09;;;6.69;100.00
42111;BME280;27766;52.174;5.456;2023-04-15T03:52:46;100903.78;;;6.64;100.00
42111;BME280;27766;52.174;5.456;2023-04-15T03:55:17;100906.19;;;6.60;100.00
42111;BME280;27766;52.174;5.456;2023-04-15T03:57:44;100907.69;;;6.53;100.00
42111;BME280;27766;52.174;5.456;2023-04-15T04:00:12;100915.41;;;6.53;100.00
42111;BME280;27766;52.174;5.456;2023-04-15T04:02:39;100905.88;;;6.51;100.00
42111;BME280;27766;52.174;5.456;2023-04-15T04:05:07;100907.31;;;6.42;100.00
42111;BME280;27766;52.174;5.456;2023-04-15T04:07:34;100913.44;;;6.46;100.00
42111;BME280;27766;52.174;5.456;2023-04-15T04:10:02;100914.78;;;6.36;100.00
42111;BME280;27766;52.174;5.456;2023-04-15T04:12:29;100919.06;;;6.36;100.00
42111;BME280;27766;52.174;5.456;2023-04-15T04:14:56;100925.72;;;6.30;100.00
42111;BME280;27766;52.174;5.456;2023-04-15T04:17:23;100930.97;;;6.33;100.00
42111;BME280;27766;52.174;5.456;2023-04-15T04:19:51;100923.94;;;6.28;100.00
42111;BME280;27766;52.174;5.456;2023-04-15T04:22:22;100934.03;;;6.23;100.00
42111;BME280;27766;52.174;5.456;2023-04-15T04:24:50;100940.63;;;6.16;100.00
42111;BME280;27766;52.174;5.456;2023-04-15T04:27:18;100932.91;;;6.16;100.00
42111;BME280;27766;52.174;5.456;2023-04-15T04:29:45;100937.38;;;6.21;100.00
42111;BME280;27766;52.174;5.456;2023-04-15T04:32:13;100948.38;;;6.18;100.00
42111;BME280;27766;52.174;5.456;2023-04-15T04:34:40;100952.72;;;6.19;100.00
42111;BME280;27766;52.174;5.456;2023-04-15T04:37:07;100951.72;;;6.15;100.00
42111;BME280;27766;52.174;5.456;2023-04-15T04:39:34;100960.25;;;6.14;100.00
42111;BME280;27766;52.174;5.456;2023-04-15T04:42:02;100967.09;;;6.14;100.00
42111;BME280;27766;52.174;5.456;2023-04-15T04:44:29;100967.97;;;6.14;100.00
42111;BME280;27766;52.174;5.456;2023-04-15T04:46:56;100975.63;;;6.13;100.00
42111;BME280;27766;52.174;5.456;2023-04-15T04:49:23;100981.63;;;6.13;100.00
42111;BME280;27766;52.174;5.456;2023-04-15T04:51:51;100977.06;;;6.06;100.00
42111;BME280;27766;52.174;5.456;2023-04-15T04:54:18;100990.91;;;6.10;100.00
42111;BME280;27766;52.174;5.456;2023-04-15T04:56:45;100978.53;;;5.99;100.00
42111;BME280;27766;52.174;5.456;2023-04-15T04:59:12;100998.28;;;6.00;100.00
42111;BME280;27766;52.174;5.456;2023-04-15T05:01:40;101006.69;;;5.98;100.00
42111;BME280;27766;52.174;5.456;2023-04-15T05:04:07;100998.56;;;5.87;100.00
42111;BME280;27766;52.174;5.456;2023-04-15T05:06:35;101016.69;;;5.90;100.00
42111;BME280;27766;52.174;5.456;2023-04-15T05:09:02;101002.66;;;5.82;100.00
42111;BME280;27766;52.174;5.456;2023-04-15T05:11:30;101007.59;;;5.77;100.00
42111;BME280;27766;52.174;5.456;2023-04-15T05:13:57;101016.34;;;5.82;100.00
42111;BME280;27766;52.174;5.456;2023-04-15T05:16:25;101025.00;;;5.84;100.00
42111;BME280;27766;52.174;5.456;2023-04-15T05:18:52;101018.69;;;5.76;100.00
42111;BME280;27766;52.174;5.456;2023-04-15T05:21:20;101029.97;;;5.80;100.00
42111;BME280;27766;52.174;5.456;2023-04-15T05:23:48;101029.84;;;5.77;100.00
42111;BME280;27766;52.174;5.456;2023-04-15T05:26:15;101040.22;;;5.80;100.00
42111;BME280;27766;52.174;5.456;2023-04-15T05:28:42;101043.88;;;5.85;100.00
42111;BME280;27766;52.174;5.456;2023-04-15T05:31:09;101034.28;;;5.81;100.00
42111;BME280;27766;52.174;5.456;2023-04-15T05:33:36;101043.50;;;5.76;100.00
42111;BME280;27766;52.174;5.456;2023-04-15T05:36:04;101049.06;;;5.86;100.00
42111;BME280;27766;52.174;5.456;2023-04-15T05:38:31;101059.53;;;5.91;100.00
42111;BME280;27766;52.174;5.456;2023-04-15T05:40:58;101064.72;;;5.93;100.00
42111;BME280;27766;52.174;5.456;2023-04-15T05:43:25;101068.53;;;6.01;100.00
42111;BME280;27766;52.174;5.456;2023-04-15T05:45:52;101070.34;;;6.04;100.00
42111;BME280;27766;52.174;5.456;2023-04-15T05:48:19;101078.56;;;6.16;100.00
42111;BME280;27766;52.174;5.456;2023-04-15T05:50:47;101071.03;;;6.21;100.00
42111;BME280;27766;52.174;5.456;2023-04-15T05:53:14;101080.09;;;6.33;100.00
42111;BME280;27766;52.174;5.456;2023-04-15T05:55:42;101081.22;;;6.40;100.00
42111;BME280;27766;52.174;5.456;2023-04-15T05:58:09;101085.63;;;6.44;100.00
42111;BME280;27766;52.174;5.456;2023-04-15T06:00:36;101080.00;;;6.53;100.00
42111;BME280;27766;52.174;5.456;2023-04-15T06:03:03;101074.84;;;6.53;100.00
42111;BME280;27766;52.174;5.456;2023-04-15T06:05:30;101086.41;;;6.64;100.00
42111;BME280;27766;52.174;5.456;2023-04-15T06:07:57;101081.97;;;6.60;100.00
42111;BME280;27766;52.174;5.456;2023-04-15T06:10:24;101087.22;;;6.63;100.00
42111;BME280;27766;52.174;5.456;2023-04-15T06:12:52;101095.06;;;6.67;100.00
42111;BME280;27766;52.174;5.456;2023-04-15T06:15:19;101102.97;;;6.71;100.00
42111;BME280;27766;52.174;5.456;2023-04-15T06:17:47;101113.22;;;6.70;100.00
42111;BME280;27766;52.174;5.456;2023-04-15T06:20:14;101116.63;;;6.70;100.00
42111;BME280;27766;52.174;5.456;2023-04-15T06:22:41;101114.13;;;6.72;100.00
42111;BME280;27766;52.174;5.456;2023-04-15T06:25:09;101127.94;;;6.74;100.00
42111;BME280;27766;52.174;5.456;2023-04-15T06:27:36;101122.09;;;6.78;100.00
42111;BME280;27766;52.174;5.456;2023-04-15T06:30:04;101124.75;;;6.81;100.00
42111;BME280;27766;52.174;5.456;2023-04-15T06:32:31;101131.91;;;6.88;100.00
42111;BME280;27766;52.174;5.456;2023-04-15T06:34:59;101135.69;;;6.98;100.00
42111;BME280;27766;52.174;5.456;2023-04-15T06:37:26;101139.44;;;7.06;100.00
42111;BME280;27766;52.174;5.456;2023-04-15T06:39:53;101142.28;;;7.14;100.00
42111;BME280;27766;52.174;5.456;2023-04-15T06:42:20;101145.25;;;7.25;100.00
42111;BME280;27766;52.174;5.456;2023-04-15T06:44:48;101150.75;;;7.34;100.00
42111;BME280;27766;52.174;5.456;2023-04-15T06:47:15;101149.22;;;7.39;100.00
42111;BME280;27766;52.174;5.456;2023-04-15T06:49:43;101165.00;;;7.49;100.00
42111;BME280;27766;52.174;5.456;2023-04-15T06:52:10;101162.91;;;7.63;100.00
42111;BME280;27766;52.174;5.456;2023-04-15T06:54:38;101170.94;;;7.72;100.00
42111;BME280;27766;52.174;5.456;2023-04-15T06:57:05;101176.31;;;7.78;100.00
42111;BME280;27766;52.174;5.456;2023-04-15T06:59:33;101179.94;;;7.83;100.00
42111;BME280;27766;52.174;5.456;2023-04-15T07:02:00;101181.31;;;7.98;100.00
42111;BME280;27766;52.174;5.456;2023-04-15T07:04:28;101190.41;;;8.14;100.00
42111;BME280;27766;52.174;5.456;2023-04-15T07:06:55;101190.72;;;8.23;100.00
42111;BME280;27766;52.174;5.456;2023-04-15T07:09:23;101198.09;;;8.38;100.00
42111;BME280;27766;52.174;5.456;2023-04-15T07:11:51;101192.25;;;8.44;100.00
42111;BME280;27766;52.174;5.456;2023-04-15T07:14:18;101205.53;;;8.54;100.00
42111;BME280;27766;52.174;5.456;2023-04-15T07:16:45;101205.59;;;8.56;100.00
42111;BME280;27766;52.174;5.456;2023-04-15T07:19:13;101199.75;;;8.62;100.00
42111;BME280;27766;52.174;5.456;2023-04-15T07:21:40;101211.13;;;8.68;100.00
42111;BME280;27766;52.174;5.456;2023-04-15T07:24:08;101209.53;;;8.72;100.00
42111;BME280;27766;52.174;5.456;2023-04-15T07:26:36;101222.72;;;8.81;100.00
42111;BME280;27766;52.174;5.456;2023-04-15T07:29:03;101218.56;;;8.86;100.00
42111;BME280;27766;52.174;5.456;2023-04-15T07:31:30;101224.94;;;8.96;100.00
42111;BME280;27766;52.174;5.456;2023-04-15T07:33:57;101235.47;;;9.04;100.00
42111;BME280;27766;52.174;5.456;2023-04-15T07:36:25;101229.47;;;9.05;100.00
42111;BME280;27766;52.174;5.456;2023-04-15T07:38:52;101238.53;;;9.19;100.00
42111;BME280;27766;52.174;5.456;2023-04-15T07:41:22;101248.66;;;9.42;100.00
42111;BME280;27766;52.174;5.456;2023-04-15T07:43:49;101241.47;;;9.62;100.00
42111;BME280;27766;52.174;5.456;2023-04-15T07:46:17;101235.25;;;9.86;100.00
42111;BME280;27766;52.174;5.456;2023-04-15T07:48:44;101250.09;;;9.93;100.00
42111;BME280;27766;52.174;5.456;2023-04-15T07:51:12;101238.38;;;10.06;100.00
42111;BME280;27766;52.174;5.456;2023-04-15T07:53:39;101243.88;;;10.20;100.00
42111;BME280;27766;52.174;5.456;2023-04-15T07:56:07;101253.53;;;10.26;100.00
42111;BME280;27766;52.174;5.456;2023-04-15T07:58:34;101257.03;;;10.28;100.00
42111;BME280;27766;52.174;5.456;2023-04-15T08:01:04;101254.44;;;10.28;100.00
42111;BME280;27766;52.174;5.456;2023-04-15T08:03:31;101255.28;;;10.27;100.00
42111;BME280;27766;52.174;5.456;2023-04-15T08:05:59;101263.59;;;10.47;100.00
42111;BME280;27766;52.174;5.456;2023-04-15T08:08:26;101265.63;;;10.60;100.00
42111;BME280;27766;52.174;5.456;2023-04-15T08:10:53;101270.66;;;10.54;100.00
42111;BME280;27766;52.174;5.456;2023-04-15T08:13:21;101267.28;;;10.57;100.00
42111;BME280;27766;52.174;5.456;2023-04-15T08:16:12;101266.72;;;10.35;100.00
42111;BME280;27766;52.174;5.456;2023-04-15T08:18:39;101280.59;;;10.37;100.00
42111;BME280;27766;52.174;5.456;2023-04-15T08:21:06;101273.69;;;10.38;100.00
42111;BME280;27766;52.174;5.456;2023-04-15T08:23:34;101282.69;;;10.52;100.00
42111;BME280;27766;52.174;5.456;2023-04-15T08:26:01;101290.66;;;10.60;100.00
42111;BME280;27766;52.174;5.456;2023-04-15T08:28:28;101282.69;;;10.52;100.00
42111;BME280;27766;52.174;5.456;2023-04-15T08:30:56;101284.06;;;10.39;100.00
42111;BME280;27766;52.174;5.456;2023-04-15T08:33:23;101279.19;;;10.50;100.00
42111;BME280;27766;52.174;5.456;2023-04-15T08:35:53;101289.72;;;10.56;100.00
42111;BME280;27766;52.174;5.456;2023-04-15T08:38:21;101297.09;;;10.41;100.00
42111;BME280;27766;52.174;5.456;2023-04-15T08:40:48;101295.06;;;10.32;100.00
42111;BME280;27766;52.174;5.456;2023-04-15T08:43:23;101304.28;;;10.53;100.00
42111;BME280;27766;52.174;5.456;2023-04-15T08:45:54;101315.78;;;10.64;100.00
42111;BME280;27766;52.174;5.456;2023-04-15T08:48:22;101313.22;;;10.66;100.00
42111;BME280;27766;52.174;5.456;2023-04-15T08:50:51;101317.78;;;10.74;100.00
42111;BME280;27766;52.174;5.456;2023-04-15T08:53:18;101322.25;;;10.82;100.00
42111;BME280;27766;52.174;5.456;2023-04-15T08:55:51;101326.63;;;10.84;100.00
42111;BME280;27766;52.174;5.456;2023-04-15T08:58:18;101332.84;;;10.91;100.00
42111;BME280;27766;52.174;5.456;2023-04-15T09:00:47;101343.41;;;11.00;100.00
42111;BME280;27766;52.174;5.456;2023-04-15T09:03:15;101329.50;;;10.97;100.00
42111;BME280;27766;52.174;5.456;2023-04-15T09:05:43;101344.91;;;10.90;100.00
42111;BME280;27766;52.174;5.456;2023-04-15T09:08:11;101342.59;;;10.66;100.00
42111;BME280;27766;52.174;5.456;2023-04-15T09:10:39;101337.41;;;10.66;100.00
42111;BME280;27766;52.174;5.456;2023-04-15T09:13:06;101354.84;;;10.73;100.00
42111;BME280;27766;52.174;5.456;2023-04-15T09:15:37;101351.06;;;10.60;100.00
42111;BME280;27766;52.174;5.456;2023-04-15T09:18:05;101352.41;;;10.80;100.00
42111;BME280;27766;52.174;5.456;2023-04-15T09:20:40;101361.84;;;10.77;100.00
42111;BME280;27766;52.174;5.456;2023-04-15T09:23:11;101366.41;;;10.86;100.00
42111;BME280;27766;52.174;5.456;2023-04-15T09:25:40;101374.84;;;10.79;100.00
42111;BME280;27766;52.174;5.456;2023-04-15T09:28:10;101367.88;;;10.76;100.00
42111;BME280;27766;52.174;5.456;2023-04-15T09:30:38;101370.09;;;10.96;100.00
42111;BME280;27766;52.174;5.456;2023-04-15T09:33:05;101370.91;;;10.95;100.00
42111;BME280;27766;52.174;5.456;2023-04-15T09:35:36;101375.81;;;10.83;100.00
42111;BME280;27766;52.174;5.456;2023-04-15T09:38:05;101375.03;;;10.87;100.00
42111;BME280;27766;52.174;5.456;2023-04-15T09:40:37;101385.28;;;10.82;100.00
42111;BME280;27766;52.174;5.456;2023-04-15T09:43:07;101370.69;;;10.86;100.00
42111;BME280;27766;52.174;5.456;2023-04-15T09:45:36;101371.63;;;10.89;100.00
42111;BME280;27766;52.174;5.456;2023-04-15T09:48:20;101382.22;;;10.97;100.00
42111;BME280;27766;52.174;5.456;2023-04-15T09:50:48;101374.59;;;11.05;100.00
42111;BME280;27766;52.174;5.456;2023-04-15T09:53:20;101386.19;;;11.19;100.00
42111;BME280;27766;52.174;5.456;2023-04-15T09:55:55;101385.28;;;11.17;100.00
42111;BME280;27766;52.174;5.456;2023-04-15T09:58:24;101392.63;;;11.35;100.00
42111;BME280;27766;52.174;5.456;2023-04-15T10:00:54;101400.56;;;11.43;100.00
42111;BME280;27766;52.174;5.456;2023-04-15T10:03:27;101387.00;;;11.53;100.00
42111;BME280;27766;52.174;5.456;2023-04-15T10:05:57;101398.91;;;11.45;100.00
42111;BME280;27766;52.174;5.456;2023-04-15T10:08:27;101401.22;;;11.71;100.00
42111;BME280;27766;52.174;5.456;2023-04-15T10:10:54;101408.22;;;11.75;100.00
42111;BME280;27766;52.174;5.456;2023-04-15T10:13:24;101403.97;;;11.79;100.00
42111;BME280;27766;52.174;5.456;2023-04-15T10:16:14;101414.63;;;11.91;100.00
42111;BME280;27766;52.174;5.456;2023-04-15T10:18:44;101406.66;;;11.83;100.00
42111;BME280;27766;52.174;5.456;2023-04-15T10:21:13;101418.19;;;11.96;100.00
42111;BME280;27766;52.174;5.456;2023-04-15T10:23:47;101405.13;;;11.93;100.00
42111;BME280;27766;52.174;5.456;2023-04-15T10:26:15;101413.22;;;12.06;100.00
42111;BME280;27766;52.174;5.456;2023-04-15T10:28:44;101406.78;;;11.90;100.00
42111;BME280;27766;52.174;5.456;2023-04-15T10:31:13;101411.16;;;11.92;100.00
42111;BME280;27766;52.174;5.456;2023-04-15T10:33:42;101416.78;;;12.11;100.00
42111;BME280;27766;52.174;5.456;2023-04-15T10:36:10;101411.06;;;12.26;100.00
42111;BME280;27766;52.174;5.456;2023-04-15T10:38:44;101399.97;;;12.34;100.00
42111;BME280;27766;52.174;5.456;2023-04-15T10:41:19;101417.72;;;12.57;100.00
42111;BME280;27766;52.174;5.456;2023-04-15T10:44:08;101427.63;;;12.34;100.00
42111;BME280;27766;52.174;5.456;2023-04-15T10:46:43;101424.84;;;11.85;100.00
42111;BME280;27766;52.174;5.456;2023-04-15T10:51:45;101436.47;;;12.01;100.00
42111;BME280;27766;52.174;5.456;2023-04-15T10:54:14;101431.41;;;12.07;100.00
42111;BME280;27766;52.174;5.456;2023-04-15T10:56:43;101447.09;;;12.12;100.00
42111;BME280;27766;52.174;5.456;2023-04-15T10:59:11;101439.31;;;12.12;100.00
42111;BME280;27766;52.174;5.456;2023-04-15T11:01:56;101448.31;;;12.29;100.00
42111;BME280;27766;52.174;5.456;2023-04-15T11:07:34;101452.19;;;12.09;100.00
42111;BME280;27766;52.174;5.456;2023-04-15T11:10:02;101452.81;;;11.97;100.00
42111;BME280;27766;52.174;5.456;2023-04-15T11:12:34;101456.50;;;12.07;100.00
42111;BME280;27766;52.174;5.456;2023-04-15T11:17:51;101460.09;;;12.15;100.00
42111;BME280;27766;52.174;5.456;2023-04-15T11:20:18;101459.72;;;12.38;100.00
42111;BME280;27766;52.174;5.456;2023-04-15T11:22:47;101455.69;;;12.52;100.00
42111;BME280;27766;52.174;5.456;2023-04-15T11:25:25;101447.69;;;12.86;100.00
42111;BME280;27766;52.174;5.456;2023-04-15T11:27:54;101439.22;;;12.97;100.00
42111;BME280;27766;52.174;5.456;2023-04-15T11:30:23;101466.97;;;12.98;100.00
42111;BME280;27766;52.174;5.456;2023-04-15T11:33:02;101459.13;;;12.97;100.00
42111;BME280;27766;52.174;5.456;2023-04-15T11:35:30;101458.00;;;12.84;100.00
42111;BME280;27766;52.174;5.456;2023-04-15T11:37:57;101456.44;;;12.92;100.00
42111;BME280;27766;52.174;5.456;2023-04-15T11:40:26;101462.69;;;13.02;100.00
42111;BME280;27766;52.174;5.456;2023-04-15T11:43:18;101456.69;;;13.05;100.00
42111;BME280;27766;52.174;5.456;2023-04-15T11:45:58;101467.56;;;12.85;100.00
42111;BME280;27766;52.174;5.456;2023-04-15T11:51:01;101471.53;;;13.12;100.00
42111;BME280;27766;52.174;5.456;2023-04-15T11:56:19;101473.88;;;12.98;100.00
42111;BME280;27766;52.174;5.456;2023-04-15T11:58:48;101461.22;;;12.69;100.00
42111;BME280;27766;52.174;5.456;2023-04-15T12:01:17;101483.59;;;12.62;100.00
42111;BME280;27766;52.174;5.456;2023-04-15T12:03:45;101496.53;;;12.61;100.00
42111;BME280;27766;52.174;5.456;2023-04-15T12:06:32;101499.28;;;12.69;100.00
42111;BME280;27766;52.174;5.456;2023-04-15T12:11:47;101499.44;;;12.75;100.00
42111;BME280;27766;52.174;5.456;2023-04-15T12:16:54;101499.84;;;12.96;100.00
42111;BME280;27766;52.174;5.456;2023-04-15T12:22:00;101515.31;;;12.90;100.00
42111;BME280;27766;52.174;5.456;2023-04-15T12:24:30;101519.81;;;13.01;100.00
42111;BME280;27766;52.174;5.456;2023-04-15T12:27:02;101521.44;;;12.94;100.00
42111;BME280;27766;52.174;5.456;2023-04-15T12:29:30;101510.34;;;13.03;100.00
42111;BME280;27766;52.174;5.456;2023-04-15T12:32:06;101523.88;;;12.86;100.00
42111;BME280;27766;52.174;5.456;2023-04-15T12:34:35;101522.97;;;12.84;100.00
42111;BME280;27766;52.174;5.456;2023-04-15T12:37:04;101513.00;;;12.61;100.00
42111;BME280;27766;52.174;5.456;2023-04-15T12:39:38;101531.69;;;12.88;100.00
42111;BME280;27766;52.174;5.456;2023-04-15T12:42:06;101539.56;;;12.92;100.00
42111;BME280;27766;52.174;5.456;2023-04-15T12:44:35;101533.44;;;12.89;100.00
42111;BME280;27766;52.174;5.456;2023-04-15T12:47:03;101535.75;;;12.73;100.00
42111;BME280;27766;52.174;5.456;2023-04-15T12:49:31;101535.63;;;12.69;100.00
42111;BME280;27766;52.174;5.456;2023-04-15T12:52:00;101541.03;;;12.78;100.00
42111;BME280;27766;52.174;5.456;2023-04-15T12:54:29;101541.53;;;13.03;100.00
42111;BME280;27766;52.174;5.456;2023-04-15T12:56:57;101554.19;;;12.86;100.00
42111;BME280;27766;52.174;5.456;2023-04-15T12:59:24;101549.94;;;12.89;100.00
42111;BME280;27766;52.174;5.456;2023-04-15T13:01:52;101570.44;;;12.77;100.00
42111;BME280;27766;52.174;5.456;2023-04-15T13:04:21;101570.13;;;12.61;100.00
42111;BME280;27766;52.174;5.456;2023-04-15T13:06:49;101567.19;;;12.46;100.00
42111;BME280;27766;52.174;5.456;2023-04-15T13:09:16;101580.59;;;12.25;100.00
42111;BME280;27766;52.174;5.456;2023-04-15T13:11:44;101567.31;;;12.12;100.00
42111;BME280;27766;52.174;5.456;2023-04-15T13:14:11;101580.25;;;11.76;100.00